createdAt,value
2023-02-23T00:00:44.283Z,76.70
2023-02-23T00:03:10.924Z,76.60
2023-02-23T00:05:37.479Z,76.70
2023-02-23T00:08:03.966Z,76.60
2023-02-23T00:10:30.533Z,76.30
2023-02-23T00:12:57.046Z,76.30
2023-02-23T00:15:23.521Z,76.20
2023-02-23T00:17:50.002Z,75.80
2023-02-23T00:20:16.472Z,75.30
2023-02-23T00:22:42.942Z,75.70
2023-02-23T00:25:09.431Z,75.90
2023-02-23T00:27:35.906Z,75.60
2023-02-23T00:30:02.398Z,75.50
2023-02-23T00:32:29.050Z,76.00
2023-02-23T00:34:55.621Z,75.90
2023-02-23T00:37:22.102Z,76.00
2023-02-23T00:39:48.600Z,76.20
2023-02-23T00:42:15.086Z,76.30
2023-02-23T00:44:41.593Z,76.00
2023-02-23T00:47:08.122Z,75.60
2023-02-23T00:49:34.619Z,75.50
2023-02-23T00:52:01.105Z,75.30
2023-02-23T00:54:27.603Z,75.20
2023-02-23T00:56:54.075Z,75.20
2023-02-23T00:59:20.572Z,75.30
2023-02-23T01:01:47.190Z,75.00
2023-02-23T01:04:13.736Z,75.20
2023-02-23T01:06:40.219Z,75.00
2023-02-23T01:09:06.692Z,74.90
2023-02-23T01:11:33.182Z,74.90
2023-02-23T01:13:59.647Z,74.90
2023-02-23T01:16:26.122Z,74.70
2023-02-23T01:18:52.596Z,74.90
2023-02-23T01:21:19.362Z,74.90
2023-02-23T01:23:45.953Z,74.80
2023-02-23T01:26:12.418Z,74.80
2023-02-23T01:28:38.880Z,74.90
2023-02-23T01:31:05.477Z,74.80
2023-02-23T01:33:32.002Z,74.80
2023-02-23T01:35:58.477Z,74.80
2023-02-23T01:38:24.946Z,75.00
2023-02-23T01:40:51.438Z,74.90
2023-02-23T01:43:17.918Z,75.00
2023-02-23T01:45:44.398Z,75.10
2023-02-23T01:48:10.885Z,74.90
2023-02-23T01:50:37.371Z,75.10
2023-02-23T01:53:03.861Z,75.70
2023-02-23T01:55:30.353Z,75.20
2023-02-23T01:57:56.831Z,75.30
2023-02-23T02:00:23.347Z,75.30
2023-02-23T02:02:49.803Z,75.20
2023-02-23T02:05:16.335Z,75.10
2023-02-23T02:07:42.864Z,75.20
2023-02-23T02:10:09.370Z,75.10
2023-02-23T02:12:35.857Z,75.10
2023-02-23T02:15:02.330Z,74.90
2023-02-23T02:17:28.813Z,74.90
2023-02-23T02:19:55.290Z,74.90
2023-02-23T02:22:21.771Z,75.00
2023-02-23T02:24:48.240Z,75.00
2023-02-23T02:27:16.772Z,75.10
2023-02-23T02:29:43.240Z,75.00
2023-02-23T02:32:09.744Z,74.90
2023-02-23T02:34:36.247Z,75.20
2023-02-23T02:37:02.737Z,74.90
2023-02-23T02:39:29.223Z,74.90
2023-02-23T02:41:55.696Z,74.90
2023-02-23T02:44:22.162Z,75.20
2023-02-23T02:46:48.633Z,75.30
2023-02-23T02:49:15.105Z,75.20
2023-02-23T02:51:41.583Z,75.20
2023-02-23T02:54:08.053Z,75.00
2023-02-23T02:56:34.542Z,75.10
2023-02-23T02:59:01.018Z,75.10
2023-02-23T03:01:27.557Z,75.20
2023-02-23T03:03:54.024Z,75.40
2023-02-23T03:06:20.546Z,75.80
2023-02-23T03:08:47.029Z,75.80
2023-02-23T03:11:13.513Z,76.20
2023-02-23T03:13:39.978Z,76.30
2023-02-23T03:16:06.487Z,76.10
2023-02-23T03:18:33.001Z,76.10
2023-02-23T03:20:59.510Z,76.00
2023-02-23T03:23:25.996Z,75.50
2023-02-23T03:25:52.502Z,76.00
2023-02-23T03:28:18.974Z,76.00
2023-02-23T03:30:45.489Z,75.80
2023-02-23T03:33:11.976Z,75.60
2023-02-23T03:35:38.476Z,75.70
2023-02-23T03:38:04.958Z,75.70
2023-02-23T03:40:31.456Z,75.80
2023-02-23T03:42:57.940Z,76.00
2023-02-23T03:45:24.477Z,76.60
2023-02-23T03:47:50.968Z,76.40
2023-02-23T03:50:22.860Z,76.00
2023-02-23T03:52:49.337Z,76.10
2023-02-23T03:55:15.839Z,76.30
2023-02-23T03:57:42.331Z,76.40
2023-02-23T04:00:08.792Z,76.40
2023-02-23T04:02:35.273Z,76.90
2023-02-23T04:05:01.744Z,76.60
2023-02-23T04:07:28.237Z,76.50
2023-02-23T04:09:54.733Z,76.50
2023-02-23T04:12:21.220Z,76.90
2023-02-23T04:14:47.686Z,76.70
2023-02-23T04:17:14.165Z,76.90
2023-02-23T04:19:40.642Z,76.50
2023-02-23T04:22:07.106Z,76.40
2023-02-23T04:24:33.594Z,76.20
2023-02-23T04:27:00.102Z,76.20
2023-02-23T04:29:26.786Z,76.60
2023-02-23T04:31:53.340Z,76.70
2023-02-23T04:34:19.873Z,77.10
2023-02-23T04:36:46.876Z,76.80
2023-02-23T04:39:13.349Z,76.70
2023-02-23T04:41:39.875Z,76.60
2023-02-23T04:44:06.371Z,77.00
2023-02-23T04:46:32.884Z,76.90
2023-02-23T04:48:59.366Z,76.50
2023-02-23T04:51:25.860Z,76.70
2023-02-23T04:53:52.353Z,76.90
2023-02-23T04:56:18.863Z,77.10
2023-02-23T04:58:45.354Z,77.00
2023-02-23T05:01:11.857Z,76.90
2023-02-23T05:03:38.383Z,77.20
2023-02-23T05:06:04.936Z,77.70
2023-02-23T05:08:31.398Z,78.40
2023-02-23T05:10:57.890Z,77.30
2023-02-23T05:13:24.376Z,77.30
2023-02-23T05:15:50.888Z,77.20
2023-02-23T05:18:17.382Z,77.10
2023-02-23T05:20:43.924Z,77.00
2023-02-23T05:23:10.400Z,77.70
2023-02-23T05:25:36.881Z,77.50
2023-02-23T05:28:03.326Z,77.40
2023-02-23T05:30:29.811Z,77.40
2023-02-23T05:32:56.304Z,77.50
2023-02-23T05:35:22.787Z,77.40
2023-02-23T05:37:49.269Z,76.70
2023-02-23T05:40:15.762Z,76.80
2023-02-23T05:42:46.940Z,76.60
2023-02-23T05:45:13.413Z,76.90
2023-02-23T05:47:39.890Z,76.70
2023-02-23T05:50:06.372Z,76.70
2023-02-23T05:52:32.856Z,76.30
2023-02-23T05:54:59.349Z,77.10
2023-02-23T05:57:25.844Z,76.60
2023-02-23T05:59:52.317Z,77.00
2023-02-23T06:02:18.796Z,76.70
2023-02-23T06:04:45.275Z,76.60
2023-02-23T06:07:11.764Z,77.00
2023-02-23T06:09:38.238Z,77.00
2023-02-23T06:12:04.715Z,77.20
2023-02-23T06:14:31.196Z,77.20
2023-02-23T06:16:57.725Z,76.90
2023-02-23T06:19:24.229Z,76.80
2023-02-23T06:21:50.710Z,76.60
2023-02-23T06:24:17.187Z,76.50
2023-02-23T06:26:44.560Z,76.40
2023-02-23T06:29:11.106Z,76.40
2023-02-23T06:31:37.713Z,76.80
2023-02-23T06:34:04.270Z,76.70
2023-02-23T06:36:30.763Z,76.80
2023-02-23T06:38:57.250Z,76.70
2023-02-23T06:41:23.734Z,76.50
2023-02-23T06:43:50.229Z,76.70
2023-02-23T06:46:17.020Z,76.70
2023-02-23T06:48:43.503Z,77.00
2023-02-23T06:51:09.973Z,77.10
2023-02-23T06:53:36.461Z,77.20
2023-02-23T06:56:02.949Z,77.00
2023-02-23T06:58:29.412Z,77.20
2023-02-23T07:00:55.909Z,77.10
2023-02-23T07:03:22.371Z,77.30
2023-02-23T07:05:48.870Z,77.40
2023-02-23T07:08:15.349Z,77.50
2023-02-23T07:10:41.846Z,77.80
2023-02-23T07:13:08.308Z,77.80
2023-02-23T07:15:34.797Z,77.70
2023-02-23T07:18:05.030Z,78.30
2023-02-23T07:20:31.495Z,78.00
2023-02-23T07:22:57.981Z,78.50
2023-02-23T07:25:24.460Z,78.30
2023-02-23T07:27:50.949Z,77.80
2023-02-23T07:30:17.413Z,78.20
2023-02-23T07:32:43.905Z,77.60
2023-02-23T07:35:10.395Z,77.00
2023-02-23T07:37:36.957Z,76.60
2023-02-23T07:40:03.445Z,77.00
2023-02-23T07:42:29.924Z,77.50
2023-02-23T07:44:56.438Z,77.70
2023-02-23T07:47:23.072Z,77.30
2023-02-23T07:49:49.567Z,77.00
2023-02-23T07:52:16.092Z,77.00
2023-02-23T07:54:42.576Z,77.10
2023-02-23T07:57:09.077Z,76.90
2023-02-23T07:59:35.552Z,77.20
2023-02-23T08:02:02.081Z,77.00
2023-02-23T08:04:28.585Z,76.90
2023-02-23T08:06:55.128Z,76.80
2023-02-23T08:09:21.631Z,77.10
2023-02-23T08:11:48.142Z,77.40
2023-02-23T08:14:14.616Z,77.70
2023-02-23T08:16:41.249Z,77.90
2023-02-23T08:19:07.770Z,78.00
2023-02-23T08:21:34.266Z,78.10
2023-02-23T08:24:00.772Z,78.10
2023-02-23T08:26:27.260Z,78.20
2023-02-23T08:28:53.740Z,78.00
2023-02-23T08:31:20.495Z,78.50
2023-02-23T08:33:47.204Z,78.40
2023-02-23T08:36:13.702Z,78.40
2023-02-23T08:38:40.350Z,78.70
2023-02-23T08:41:06.853Z,79.10
2023-02-23T08:43:33.350Z,79.20
2023-02-23T08:45:59.859Z,79.00
2023-02-23T08:48:26.366Z,78.80
2023-02-23T08:50:52.839Z,79.40
2023-02-23T08:53:19.338Z,79.20
2023-02-23T08:55:45.791Z,78.60
2023-02-23T08:58:12.261Z,78.50
2023-02-23T09:00:38.731Z,78.90
2023-02-23T09:03:05.233Z,78.50
2023-02-23T09:05:31.781Z,78.40
2023-02-23T09:07:58.278Z,79.00
2023-02-23T09:10:24.826Z,78.50
2023-02-23T09:12:51.347Z,78.40
2023-02-23T09:15:17.832Z,78.30
2023-02-23T09:17:44.325Z,78.40
2023-02-23T09:20:10.807Z,78.30
2023-02-23T09:22:37.280Z,78.40
2023-02-23T09:25:05.136Z,78.70
2023-02-23T09:27:31.682Z,79.00
2023-02-23T09:29:58.199Z,79.20
2023-02-23T09:32:24.759Z,79.50
2023-02-23T09:34:51.363Z,79.80
2023-02-23T09:37:17.914Z,79.90
2023-02-23T09:39:47.142Z,79.70
2023-02-23T09:42:13.623Z,79.30
2023-02-23T09:44:40.128Z,79.30
2023-02-23T09:47:06.609Z,79.60
2023-02-23T09:49:33.101Z,79.20
2023-02-23T09:51:59.567Z,78.70
2023-02-23T09:54:26.065Z,79.20
2023-02-23T09:56:52.537Z,78.50
2023-02-23T09:59:19.042Z,78.70
2023-02-23T10:01:45.552Z,78.90
2023-02-23T10:04:12.066Z,78.60
2023-02-23T10:06:38.552Z,78.80
2023-02-23T10:09:05.136Z,78.80
2023-02-23T10:11:31.701Z,79.40
2023-02-23T10:13:58.206Z,79.60
2023-02-23T10:16:24.686Z,79.20
2023-02-23T10:18:51.166Z,79.00
2023-02-23T10:21:18.069Z,78.70
2023-02-23T10:23:44.802Z,78.80
2023-02-23T10:26:11.295Z,79.10
2023-02-23T10:28:37.802Z,79.20
2023-02-23T10:31:05.293Z,78.90
2023-02-23T10:33:31.825Z,79.10
2023-02-23T10:36:12.595Z,79.20
2023-02-23T10:38:39.698Z,78.80
2023-02-23T10:41:06.239Z,78.90
2023-02-23T10:43:32.709Z,79.90
2023-02-23T10:45:59.439Z,79.40
2023-02-23T10:48:25.933Z,79.40
2023-02-23T10:50:52.428Z,78.90
2023-02-23T10:53:18.951Z,79.60
2023-02-23T10:55:45.485Z,79.90
2023-02-23T10:58:11.979Z,79.90
2023-02-23T11:00:38.524Z,79.50
2023-02-23T11:03:04.998Z,79.20
2023-02-23T11:05:31.492Z,79.20
2023-02-23T11:07:57.965Z,79.70
2023-02-23T11:10:24.883Z,79.90
2023-02-23T11:12:51.395Z,79.50
2023-02-23T11:15:17.899Z,79.70
2023-02-23T11:17:44.354Z,79.80
2023-02-23T11:20:10.852Z,79.40
2023-02-23T11:22:37.345Z,79.20
2023-02-23T11:25:03.883Z,79.10
2023-02-23T11:27:30.351Z,79.00
2023-02-23T11:29:56.841Z,78.80
2023-02-23T11:32:23.623Z,79.00
2023-02-23T11:34:53.230Z,78.90
2023-02-23T11:37:19.721Z,79.10
2023-02-23T11:39:46.194Z,79.10
2023-02-23T11:42:12.672Z,79.40
2023-02-23T11:44:39.153Z,79.00
2023-02-23T11:47:05.651Z,78.90
2023-02-23T11:49:32.128Z,79.00
2023-02-23T11:51:58.607Z,79.20
2023-02-23T11:54:25.085Z,79.50
2023-02-23T11:56:51.565Z,79.60
2023-02-23T11:59:18.052Z,79.30
2023-02-23T12:01:44.556Z,79.50
2023-02-23T12:04:11.068Z,79.80
2023-02-23T12:06:37.606Z,80.00
2023-02-23T12:09:04.138Z,80.10
2023-02-23T12:11:30.653Z,79.60
2023-02-23T12:13:57.157Z,79.50
2023-02-23T12:16:23.671Z,79.80
2023-02-23T12:18:50.157Z,80.10
2023-02-23T12:21:16.679Z,79.80
2023-02-23T12:23:43.168Z,79.80
2023-02-23T12:26:09.678Z,79.50
2023-02-23T12:28:36.172Z,79.60
2023-02-23T12:31:02.700Z,79.90
2023-02-23T12:33:29.210Z,79.60
2023-02-23T12:35:55.708Z,79.40
2023-02-23T12:38:22.190Z,79.30
2023-02-23T12:40:50.994Z,79.60
2023-02-23T12:43:17.569Z,79.40
2023-02-23T12:45:44.069Z,79.40
2023-02-23T12:48:10.595Z,79.20
2023-02-23T12:50:37.096Z,79.40
2023-02-23T12:53:03.593Z,79.50
2023-02-23T12:55:30.085Z,79.50
2023-02-23T12:57:56.585Z,79.00
2023-02-23T13:00:23.075Z,79.20
2023-02-23T13:02:49.593Z,79.10
2023-02-23T13:05:16.098Z,79.00
2023-02-23T13:07:42.593Z,79.40
2023-02-23T13:10:09.076Z,79.40
2023-02-23T13:12:35.585Z,79.00
2023-02-23T13:15:05.454Z,79.20
2023-02-23T13:17:31.940Z,79.50
2023-02-23T13:19:58.421Z,79.50
2023-02-23T13:22:24.911Z,79.50
2023-02-23T13:24:51.413Z,79.00
2023-02-23T13:27:17.912Z,79.00
2023-02-23T13:29:44.421Z,79.30
2023-02-23T13:32:10.980Z,79.10
2023-02-23T13:34:37.551Z,79.30
2023-02-23T13:37:04.043Z,79.50
2023-02-23T13:39:30.524Z,79.40
2023-02-23T13:41:56.985Z,79.50
2023-02-23T13:44:23.499Z,79.30
2023-02-23T13:46:50.012Z,79.20
2023-02-23T13:49:16.502Z,79.40
2023-02-23T13:51:42.987Z,79.20
2023-02-23T13:54:09.463Z,79.00
2023-02-23T13:56:35.971Z,79.20
2023-02-23T13:59:02.455Z,79.10
2023-02-23T14:01:29.058Z,79.40
2023-02-23T14:03:55.585Z,79.50
2023-02-23T14:06:22.107Z,79.40
2023-02-23T14:08:48.601Z,79.10
2023-02-23T14:11:15.114Z,79.20
2023-02-23T14:13:41.600Z,78.80
2023-02-23T14:16:08.169Z,78.60
2023-02-23T14:18:34.668Z,78.60
2023-02-23T14:21:01.171Z,78.70
2023-02-23T14:23:27.651Z,78.70
2023-02-23T14:25:56.310Z,78.70
2023-02-23T14:28:23.770Z,78.80
2023-02-23T14:30:50.449Z,78.70
2023-02-23T14:33:21.764Z,78.60
2023-02-23T14:35:48.373Z,78.20
2023-02-23T14:38:14.852Z,78.00
2023-02-23T14:40:41.375Z,77.90
2023-02-23T14:43:07.891Z,78.10
2023-02-23T14:45:34.352Z,78.00
2023-02-23T14:48:00.835Z,78.10
2023-02-23T14:50:27.321Z,78.10
2023-02-23T14:52:59.352Z,78.00
2023-02-23T14:55:27.991Z,78.00
2023-02-23T14:57:55.522Z,78.10
2023-02-23T15:00:22.009Z,78.30
2023-02-23T15:02:54.170Z,78.10
2023-02-23T15:05:20.908Z,78.30
2023-02-23T15:07:47.400Z,78.40
2023-02-23T15:10:13.899Z,78.30
2023-02-23T15:12:40.385Z,78.00
2023-02-23T15:15:06.874Z,78.40
2023-02-23T15:17:33.392Z,78.50
2023-02-23T15:20:14.319Z,78.20
2023-02-23T15:22:47.413Z,78.10
2023-02-23T15:25:13.890Z,78.20
2023-02-23T15:27:40.370Z,78.40
2023-02-23T15:30:06.850Z,78.70
2023-02-23T15:32:33.513Z,79.00
2023-02-23T15:35:00.138Z,78.80
2023-02-23T15:37:26.644Z,78.60
2023-02-23T15:39:53.117Z,78.30
2023-02-23T15:42:19.655Z,78.40
2023-02-23T15:44:46.113Z,78.10
2023-02-23T15:47:12.598Z,78.00
2023-02-23T15:49:39.093Z,77.80
2023-02-23T15:52:05.600Z,77.80
2023-02-23T15:54:32.076Z,77.90
2023-02-23T15:56:58.553Z,77.60
2023-02-23T15:59:25.053Z,77.40
2023-02-23T16:01:51.543Z,77.90
2023-02-23T16:04:18.079Z,77.90
2023-02-23T16:06:44.558Z,77.60
2023-02-23T16:09:11.064Z,77.70
2023-02-23T16:11:37.526Z,77.90
2023-02-23T16:14:05.515Z,77.90
2023-02-23T16:16:32.214Z,77.90
2023-02-23T16:18:58.700Z,77.60
2023-02-23T16:21:25.232Z,77.80
2023-02-23T16:23:51.747Z,77.90
2023-02-23T16:26:18.631Z,78.10
2023-02-23T16:28:45.490Z,78.00
2023-02-23T16:31:11.979Z,77.80
2023-02-23T16:33:38.490Z,78.00
2023-02-23T16:36:04.995Z,77.80
2023-02-23T16:38:35.473Z,77.80
2023-02-23T16:41:02.122Z,77.80
2023-02-23T16:43:28.608Z,77.90
2023-02-23T16:45:55.246Z,77.30
2023-02-23T16:48:21.733Z,77.00
2023-02-23T16:50:48.207Z,76.60
2023-02-23T16:53:14.672Z,76.70
2023-02-23T16:55:41.175Z,77.00
2023-02-23T16:58:07.694Z,77.00
2023-02-23T17:00:34.184Z,76.80
2023-02-23T17:03:00.966Z,76.90
2023-02-23T17:05:27.563Z,76.50
2023-02-23T17:07:54.046Z,76.50
2023-02-23T17:10:20.569Z,76.30
2023-02-23T17:12:47.033Z,76.40
2023-02-23T17:15:13.486Z,76.20
2023-02-23T17:17:39.955Z,76.10
2023-02-23T17:20:06.494Z,76.10
2023-02-23T17:22:32.981Z,76.30
2023-02-23T17:24:59.474Z,76.30
2023-02-23T17:27:25.940Z,76.20
2023-02-23T17:29:52.443Z,75.90
2023-02-23T17:32:19.016Z,75.90
2023-02-23T17:34:45.567Z,75.70
2023-02-23T17:37:12.060Z,76.20
2023-02-23T17:39:38.558Z,76.60
2023-02-23T17:42:05.028Z,76.80
2023-02-23T17:44:31.525Z,76.70
2023-02-23T17:46:57.998Z,76.60
2023-02-23T17:49:24.496Z,76.50
2023-02-23T17:51:50.978Z,77.30
2023-02-23T17:54:17.500Z,76.60
2023-02-23T17:56:43.988Z,76.60
2023-02-23T17:59:10.477Z,77.20
2023-02-23T18:01:36.958Z,77.10
2023-02-23T18:04:03.492Z,77.10
2023-02-23T18:06:29.970Z,77.00
2023-02-23T18:08:56.530Z,76.80
2023-02-23T18:11:23.421Z,76.70
2023-02-23T18:13:50.083Z,76.60
2023-02-23T18:16:16.661Z,76.10
2023-02-23T18:18:43.218Z,76.20
2023-02-23T18:21:09.705Z,75.90
2023-02-23T18:23:36.185Z,75.90
2023-02-23T18:26:02.673Z,76.00
2023-02-23T18:28:29.526Z,76.20
2023-02-23T18:30:56.022Z,76.20
2023-02-23T18:33:22.592Z,75.90
2023-02-23T18:35:49.122Z,76.10
2023-02-23T18:38:15.651Z,76.10
2023-02-23T18:40:42.274Z,76.50
2023-02-23T18:43:08.767Z,76.70
2023-02-23T18:45:35.261Z,76.90
2023-02-23T18:48:01.752Z,76.50
2023-02-23T18:50:28.234Z,76.40
2023-02-23T18:52:55.783Z,76.30
2023-02-23T18:55:22.336Z,76.10
2023-02-23T18:57:48.846Z,75.90
2023-02-23T19:00:15.357Z,76.30
2023-02-23T19:02:41.844Z,76.70
2023-02-23T19:05:08.414Z,76.50
2023-02-23T19:07:34.885Z,76.40
2023-02-23T19:10:01.390Z,76.10
2023-02-23T19:12:27.874Z,76.10
2023-02-23T19:14:54.415Z,75.90
2023-02-23T19:17:20.900Z,75.70
2023-02-23T19:19:47.386Z,75.50
2023-02-23T19:22:13.855Z,75.60
2023-02-23T19:24:40.326Z,75.50
2023-02-23T19:27:06.796Z,75.70
2023-02-23T19:29:33.282Z,76.20
2023-02-23T19:31:59.839Z,76.20
2023-02-23T19:34:26.387Z,76.10
2023-02-23T19:36:52.889Z,76.00
2023-02-23T19:39:19.392Z,75.90
2023-02-23T19:41:45.880Z,75.80
2023-02-23T19:44:12.360Z,75.80
2023-02-23T19:46:38.848Z,75.90
2023-02-23T19:49:05.337Z,76.00
2023-02-23T19:51:31.782Z,76.50
2023-02-23T19:53:58.260Z,76.00
2023-02-23T19:56:24.714Z,75.80
2023-02-23T19:58:51.203Z,76.10
2023-02-23T20:01:17.973Z,76.00
2023-02-23T20:03:44.666Z,76.30
2023-02-23T20:06:11.159Z,76.30
2023-02-23T20:08:37.644Z,76.40
2023-02-23T20:11:04.116Z,76.20
2023-02-23T20:13:30.594Z,76.40
2023-02-23T20:15:57.090Z,76.40
2023-02-23T20:18:23.575Z,76.30
2023-02-23T20:20:50.052Z,76.70
2023-02-23T20:23:16.534Z,77.20
2023-02-23T20:25:42.998Z,77.70
2023-02-23T20:28:09.475Z,77.20
2023-02-23T20:30:35.990Z,76.80
2023-02-23T20:33:02.491Z,77.00
2023-02-23T20:35:28.991Z,76.90
2023-02-23T20:37:55.463Z,76.70
2023-02-23T20:40:21.966Z,76.50
2023-02-23T20:42:48.486Z,76.40
2023-02-23T20:45:15.012Z,76.70
2023-02-23T20:47:41.530Z,76.60
2023-02-23T20:50:08.027Z,76.50
2023-02-23T20:52:34.521Z,76.50
2023-02-23T20:55:01.007Z,76.40
2023-02-23T20:57:27.485Z,76.80
2023-02-23T20:59:53.964Z,77.00
2023-02-23T21:02:20.451Z,76.60
2023-02-23T21:04:46.935Z,76.70
2023-02-23T21:07:13.442Z,76.90
2023-02-23T21:09:39.987Z,77.00
2023-02-23T21:12:06.475Z,77.00
2023-02-23T21:14:34.571Z,76.50
2023-02-23T21:17:01.929Z,76.20
2023-02-23T21:19:28.385Z,76.30
2023-02-23T21:21:54.880Z,76.00
2023-02-23T21:24:21.361Z,76.00
2023-02-23T21:26:47.875Z,76.10
2023-02-23T21:29:14.357Z,75.90
2023-02-23T21:31:41.012Z,76.20
2023-02-23T21:34:07.608Z,76.70
2023-02-23T21:36:34.103Z,76.50
2023-02-23T21:39:00.585Z,76.60
2023-02-23T21:41:27.093Z,76.50
2023-02-23T21:43:53.605Z,76.40
2023-02-23T21:46:20.183Z,76.00
2023-02-23T21:48:46.670Z,76.40
2023-02-23T21:51:17.728Z,76.60
2023-02-23T21:53:44.184Z,76.00
2023-02-23T21:56:10.680Z,76.00
2023-02-23T21:58:37.171Z,75.70
2023-02-23T22:01:03.668Z,76.50
2023-02-23T22:03:30.140Z,76.10
2023-02-23T22:05:56.637Z,75.60
2023-02-23T22:08:23.101Z,75.30
2023-02-23T22:10:49.586Z,75.30
2023-02-23T22:13:16.059Z,75.00
2023-02-23T22:15:42.594Z,75.30
2023-02-23T22:18:09.102Z,75.30
2023-02-23T22:20:35.598Z,75.20
2023-02-23T22:23:02.076Z,75.30
2023-02-23T22:25:28.545Z,75.30
2023-02-23T22:27:55.028Z,75.20
2023-02-23T22:30:21.485Z,75.30
2023-02-23T22:32:48.135Z,75.20
2023-02-23T22:35:14.777Z,75.00
2023-02-23T22:37:41.272Z,75.20
2023-02-23T22:40:07.739Z,75.30
2023-02-23T22:42:34.216Z,75.30
2023-02-23T22:45:00.809Z,75.70
2023-02-23T22:47:27.287Z,75.80
2023-02-23T22:49:53.752Z,75.50
2023-02-23T22:52:20.233Z,75.50
2023-02-23T22:54:46.720Z,75.60
2023-02-23T22:57:13.229Z,75.50
2023-02-23T22:59:39.740Z,75.80
2023-02-23T23:02:06.217Z,75.50
2023-02-23T23:04:32.723Z,75.40
2023-02-23T23:06:59.261Z,75.40
2023-02-23T23:09:25.750Z,75.30
2023-02-23T23:11:52.232Z,75.20
2023-02-23T23:14:18.718Z,75.30
2023-02-23T23:16:45.219Z,75.30
2023-02-23T23:19:11.721Z,75.10
2023-02-23T23:21:38.203Z,75.10
2023-02-23T23:24:04.681Z,75.00
2023-02-23T23:26:31.189Z,74.80
2023-02-23T23:28:57.665Z,74.80
2023-02-23T23:31:24.731Z,74.90
2023-02-23T23:33:51.413Z,74.90
2023-02-23T23:36:17.910Z,74.90
2023-02-23T23:38:44.404Z,75.00
2023-02-23T23:41:10.924Z,74.70
2023-02-23T23:43:37.381Z,74.60
2023-02-23T23:46:03.946Z,74.70
2023-02-23T23:48:30.462Z,74.50
2023-02-23T23:50:59.852Z,74.50
2023-02-23T23:53:26.313Z,74.80
2023-02-23T23:55:52.773Z,74.50
2023-02-23T23:58:19.248Z,74.70
